sensor_id;sensor_type;location;lat;lon;timestamp;P1;durP1;ratioP1;P2;durP2;ratioP2
28335;SDS011;15592;53.656;7.276;2022-11-20T00:02:25;2.70;;;1.77;;
28335;SDS011;15592;53.656;7.276;2022-11-20T00:04:51;3.28;;;1.55;;
28335;SDS011;15592;53.656;7.276;2022-11-20T00:07:16;3.58;;;1.70;;
28335;SDS011;15592;53.656;7.276;2022-11-20T00:09:42;2.78;;;1.60;;
28335;SDS011;15592;53.656;7.276;2022-11-20T00:12:08;1.95;;;1.42;;
28335;SDS011;15592;53.656;7.276;2022-11-20T00:14:33;1.95;;;1.25;;
28335;SDS011;15592;53.656;7.276;2022-11-20T00:16:59;1.58;;;1.10;;
28335;SDS011;15592;53.656;7.276;2022-11-20T00:19:25;1.63;;;1.20;;
28335;SDS011;15592;53.656;7.276;2022-11-20T00:21:50;1.50;;;1.20;;
28335;SDS011;15592;53.656;7.276;2022-11-20T00:24:18;2.25;;;1.20;;
28335;SDS011;15592;53.656;7.276;2022-11-20T00:26:44;1.50;;;1.25;;
28335;SDS011;15592;53.656;7.276;2022-11-20T00:29:10;1.33;;;1.20;;
28335;SDS011;15592;53.656;7.276;2022-11-20T00:31:35;2.60;;;1.60;;
28335;SDS011;15592;53.656;7.276;2022-11-20T00:34:01;3.30;;;2.00;;
28335;SDS011;15592;53.656;7.276;2022-11-20T00:36:27;2.70;;;1.88;;
28335;SDS011;15592;53.656;7.276;2022-11-20T00:38:54;3.65;;;2.42;;
28335;SDS011;15592;53.656;7.276;2022-11-20T00:41:22;3.58;;;2.55;;
28335;SDS011;15592;53.656;7.276;2022-11-20T00:43:48;2.88;;;2.25;;
28335;SDS011;15592;53.656;7.276;2022-11-20T00:46:16;3.03;;;2.22;;
28335;SDS011;15592;53.656;7.276;2022-11-20T00:48:43;3.20;;;1.98;;
28335;SDS011;15592;53.656;7.276;2022-11-20T00:51:13;3.30;;;2.30;;
28335;SDS011;15592;53.656;7.276;2022-11-20T00:53:41;4.57;;;2.15;;
28335;SDS011;15592;53.656;7.276;2022-11-20T00:56:09;2.88;;;2.33;;
28335;SDS011;15592;53.656;7.276;2022-11-20T00:58:36;2.90;;;2.20;;
28335;SDS011;15592;53.656;7.276;2022-11-20T01:01:05;4.05;;;2.50;;
28335;SDS011;15592;53.656;7.276;2022-11-20T01:03:33;3.60;;;2.50;;
28335;SDS011;15592;53.656;7.276;2022-11-20T01:06:07;3.60;;;2.47;;
28335;SDS011;15592;53.656;7.276;2022-11-20T01:08:56;5.47;;;3.10;;
28335;SDS011;15592;53.656;7.276;2022-11-20T01:11:24;3.65;;;2.88;;
28335;SDS011;15592;53.656;7.276;2022-11-20T01:13:55;3.60;;;2.42;;
28335;SDS011;15592;53.656;7.276;2022-11-20T01:16:23;3.20;;;2.67;;
28335;SDS011;15592;53.656;7.276;2022-11-20T01:18:51;3.83;;;2.60;;
28335;SDS011;15592;53.656;7.276;2022-11-20T01:21:19;3.15;;;2.20;;
28335;SDS011;15592;53.656;7.276;2022-11-20T01:23:50;3.08;;;2.10;;
28335;SDS011;15592;53.656;7.276;2022-11-20T01:26:21;4.28;;;2.58;;
28335;SDS011;15592;53.656;7.276;2022-11-20T01:28:49;3.45;;;2.33;;
28335;SDS011;15592;53.656;7.276;2022-11-20T01:31:19;4.10;;;2.60;;
28335;SDS011;15592;53.656;7.276;2022-11-20T01:33:47;3.75;;;2.38;;
28335;SDS011;15592;53.656;7.276;2022-11-20T01:36:15;2.75;;;2.13;;
28335;SDS011;15592;53.656;7.276;2022-11-20T01:38:42;3.35;;;2.33;;
28335;SDS011;15592;53.656;7.276;2022-11-20T01:41:08;3.05;;;2.03;;
28335;SDS011;15592;53.656;7.276;2022-11-20T01:43:35;2.30;;;1.73;;
28335;SDS011;15592;53.656;7.276;2022-11-20T01:46:02;3.45;;;2.10;;
28335;SDS011;15592;53.656;7.276;2022-11-20T01:48:30;4.00;;;2.20;;
28335;SDS011;15592;53.656;7.276;2022-11-20T01:51:13;2.90;;;2.00;;
28335;SDS011;15592;53.656;7.276;2022-11-20T01:53:45;3.80;;;1.88;;
28335;SDS011;15592;53.656;7.276;2022-11-20T01:56:12;3.17;;;2.22;;
28335;SDS011;15592;53.656;7.276;2022-11-20T01:58:42;2.25;;;1.83;;
28335;SDS011;15592;53.656;7.276;2022-11-20T02:01:12;2.53;;;2.10;;
28335;SDS011;15592;53.656;7.276;2022-11-20T02:03:39;2.42;;;2.00;;
28335;SDS011;15592;53.656;7.276;2022-11-20T02:08:31;3.45;;;2.42;;
28335;SDS011;15592;53.656;7.276;2022-11-20T02:10:58;4.15;;;2.78;;
28335;SDS011;15592;53.656;7.276;2022-11-20T02:13:23;5.15;;;3.35;;
28335;SDS011;15592;53.656;7.276;2022-11-20T02:16:14;4.72;;;3.72;;
28335;SDS011;15592;53.656;7.276;2022-11-20T02:18:43;5.70;;;4.30;;
28335;SDS011;15592;53.656;7.276;2022-11-20T02:21:15;7.78;;;4.53;;
28335;SDS011;15592;53.656;7.276;2022-11-20T02:24:08;6.93;;;4.63;;
28335;SDS011;15592;53.656;7.276;2022-11-20T02:26:43;6.10;;;4.07;;
28335;SDS011;15592;53.656;7.276;2022-11-20T02:29:33;5.63;;;4.13;;
28335;SDS011;15592;53.656;7.276;2022-11-20T02:32:17;4.95;;;3.35;;
28335;SDS011;15592;53.656;7.276;2022-11-20T02:34:44;5.38;;;3.55;;
28335;SDS011;15592;53.656;7.276;2022-11-20T02:37:09;5.75;;;3.92;;
28335;SDS011;15592;53.656;7.276;2022-11-20T02:39:35;5.10;;;3.88;;
28335;SDS011;15592;53.656;7.276;2022-11-20T02:42:01;6.80;;;4.80;;
28335;SDS011;15592;53.656;7.276;2022-11-20T02:44:27;6.35;;;4.57;;
28335;SDS011;15592;53.656;7.276;2022-11-20T02:46:52;6.32;;;4.28;;
28335;SDS011;15592;53.656;7.276;2022-11-20T02:49:18;5.22;;;4.18;;
28335;SDS011;15592;53.656;7.276;2022-11-20T02:51:43;6.85;;;4.18;;
28335;SDS011;15592;53.656;7.276;2022-11-20T02:54:09;4.82;;;2.97;;
28335;SDS011;15592;53.656;7.276;2022-11-20T02:56:37;4.32;;;2.40;;
28335;SDS011;15592;53.656;7.276;2022-11-20T02:59:03;5.30;;;1.98;;
28335;SDS011;15592;53.656;7.276;2022-11-20T03:01:29;4.47;;;2.10;;
28335;SDS011;15592;53.656;7.276;2022-11-20T03:03:55;2.85;;;1.67;;
28335;SDS011;15592;53.656;7.276;2022-11-20T03:06:21;1.90;;;1.60;;
28335;SDS011;15592;53.656;7.276;2022-11-20T03:08:46;2.08;;;1.60;;
28335;SDS011;15592;53.656;7.276;2022-11-20T03:11:12;2.38;;;1.60;;
28335;SDS011;15592;53.656;7.276;2022-11-20T03:13:38;1.42;;;1.27;;
28335;SDS011;15592;53.656;7.276;2022-11-20T03:16:11;2.72;;;1.50;;
28335;SDS011;15592;53.656;7.276;2022-11-20T03:18:41;1.38;;;1.05;;
28335;SDS011;15592;53.656;7.276;2022-11-20T03:21:07;2.78;;;2.13;;
28335;SDS011;15592;53.656;7.276;2022-11-20T03:23:33;4.40;;;2.78;;
28335;SDS011;15592;53.656;7.276;2022-11-20T03:26:16;3.20;;;2.55;;
28335;SDS011;15592;53.656;7.276;2022-11-20T03:28:51;5.70;;;3.85;;
28335;SDS011;15592;53.656;7.276;2022-11-20T03:31:19;8.45;;;4.97;;
28335;SDS011;15592;53.656;7.276;2022-11-20T03:33:49;7.22;;;4.45;;
28335;SDS011;15592;53.656;7.276;2022-11-20T03:36:16;7.63;;;4.88;;
28335;SDS011;15592;53.656;7.276;2022-11-20T03:38:42;9.40;;;5.85;;
28335;SDS011;15592;53.656;7.276;2022-11-20T03:41:10;9.02;;;5.47;;
28335;SDS011;15592;53.656;7.276;2022-11-20T03:43:37;8.38;;;4.97;;
28335;SDS011;15592;53.656;7.276;2022-11-20T03:46:03;6.93;;;4.95;;
28335;SDS011;15592;53.656;7.276;2022-11-20T03:48:30;6.85;;;4.90;;
28335;SDS011;15592;53.656;7.276;2022-11-20T03:53:33;6.65;;;4.25;;
28335;SDS011;15592;53.656;7.276;2022-11-20T03:55:59;5.38;;;3.75;;
28335;SDS011;15592;53.656;7.276;2022-11-20T03:58:25;5.47;;;3.28;;
28335;SDS011;15592;53.656;7.276;2022-11-20T04:00:50;7.03;;;3.70;;
28335;SDS011;15592;53.656;7.276;2022-11-20T04:03:16;4.80;;;2.92;;
28335;SDS011;15592;53.656;7.276;2022-11-20T04:05:41;4.25;;;2.85;;
28335;SDS011;15592;53.656;7.276;2022-11-20T04:08:07;4.75;;;3.10;;
28335;SDS011;15592;53.656;7.276;2022-11-20T04:10:33;3.90;;;2.63;;
28335;SDS011;15592;53.656;7.276;2022-11-20T04:12:59;4.25;;;2.97;;
28335;SDS011;15592;53.656;7.276;2022-11-20T04:15:24;5.30;;;2.63;;
28335;SDS011;15592;53.656;7.276;2022-11-20T04:17:50;5.38;;;3.17;;
28335;SDS011;15592;53.656;7.276;2022-11-20T04:20:15;3.95;;;2.50;;
28335;SDS011;15592;53.656;7.276;2022-11-20T04:22:41;4.28;;;2.67;;
28335;SDS011;15592;53.656;7.276;2022-11-20T04:25:07;4.72;;;3.13;;
28335;SDS011;15592;53.656;7.276;2022-11-20T04:27:33;4.75;;;2.75;;
28335;SDS011;15592;53.656;7.276;2022-11-20T04:32:24;6.03;;;3.20;;
28335;SDS011;15592;53.656;7.276;2022-11-20T04:34:49;5.78;;;2.80;;
28335;SDS011;15592;53.656;7.276;2022-11-20T04:37:15;5.30;;;2.85;;
28335;SDS011;15592;53.656;7.276;2022-11-20T04:39:41;3.75;;;2.60;;
28335;SDS011;15592;53.656;7.276;2022-11-20T04:42:08;3.45;;;2.30;;
28335;SDS011;15592;53.656;7.276;2022-11-20T04:44:55;3.33;;;2.65;;
28335;SDS011;15592;53.656;7.276;2022-11-20T04:47:21;3.60;;;2.35;;
28335;SDS011;15592;53.656;7.276;2022-11-20T04:49:47;4.15;;;2.50;;
28335;SDS011;15592;53.656;7.276;2022-11-20T04:52:13;3.53;;;2.50;;
28335;SDS011;15592;53.656;7.276;2022-11-20T04:54:38;2.45;;;2.20;;
28335;SDS011;15592;53.656;7.276;2022-11-20T04:57:04;4.22;;;2.65;;
28335;SDS011;15592;53.656;7.276;2022-11-20T04:59:30;3.90;;;2.33;;
28335;SDS011;15592;53.656;7.276;2022-11-20T05:01:55;3.80;;;2.90;;
28335;SDS011;15592;53.656;7.276;2022-11-20T05:04:21;2.80;;;2.38;;
28335;SDS011;15592;53.656;7.276;2022-11-20T05:06:47;5.07;;;2.75;;
28335;SDS011;15592;53.656;7.276;2022-11-20T05:09:13;4.65;;;2.65;;
28335;SDS011;15592;53.656;7.276;2022-11-20T05:11:38;3.50;;;2.47;;
28335;SDS011;15592;53.656;7.276;2022-11-20T05:14:04;4.13;;;2.50;;
28335;SDS011;15592;53.656;7.276;2022-11-20T05:16:29;3.53;;;2.38;;
28335;SDS011;15592;53.656;7.276;2022-11-20T05:18:55;3.03;;;2.35;;
28335;SDS011;15592;53.656;7.276;2022-11-20T05:21:21;3.65;;;2.17;;
28335;SDS011;15592;53.656;7.276;2022-11-20T05:23:48;4.32;;;2.83;;
28335;SDS011;15592;53.656;7.276;2022-11-20T05:26:15;3.53;;;2.60;;
28335;SDS011;15592;53.656;7.276;2022-11-20T05:28:42;3.63;;;2.22;;
28335;SDS011;15592;53.656;7.276;2022-11-20T05:31:09;3.13;;;2.28;;
28335;SDS011;15592;53.656;7.276;2022-11-20T05:33:37;2.60;;;2.10;;
28335;SDS011;15592;53.656;7.276;2022-11-20T05:36:05;2.63;;;1.90;;
28335;SDS011;15592;53.656;7.276;2022-11-20T05:38:31;3.25;;;2.00;;
28335;SDS011;15592;53.656;7.276;2022-11-20T05:41:04;3.00;;;2.40;;
28335;SDS011;15592;53.656;7.276;2022-11-20T05:43:39;3.20;;;2.22;;
28335;SDS011;15592;53.656;7.276;2022-11-20T05:46:07;3.33;;;2.20;;
28335;SDS011;15592;53.656;7.276;2022-11-20T05:48:34;2.95;;;2.08;;
28335;SDS011;15592;53.656;7.276;2022-11-20T05:51:00;3.40;;;2.30;;
28335;SDS011;15592;53.656;7.276;2022-11-20T05:53:27;3.55;;;2.50;;
28335;SDS011;15592;53.656;7.276;2022-11-20T05:56:00;3.25;;;2.55;;
28335;SDS011;15592;53.656;7.276;2022-11-20T05:58:27;4.85;;;2.78;;
28335;SDS011;15592;53.656;7.276;2022-11-20T06:00:53;4.20;;;3.05;;
28335;SDS011;15592;53.656;7.276;2022-11-20T06:03:19;4.63;;;3.40;;
28335;SDS011;15592;53.656;7.276;2022-11-20T06:05:45;4.38;;;3.00;;
28335;SDS011;15592;53.656;7.276;2022-11-20T06:08:11;4.38;;;3.10;;
28335;SDS011;15592;53.656;7.276;2022-11-20T06:10:36;4.15;;;3.05;;
28335;SDS011;15592;53.656;7.276;2022-11-20T06:13:02;6.15;;;3.58;;
28335;SDS011;15592;53.656;7.276;2022-11-20T06:15:27;5.72;;;3.55;;
28335;SDS011;15592;53.656;7.276;2022-11-20T06:17:53;6.13;;;3.80;;
28335;SDS011;15592;53.656;7.276;2022-11-20T06:20:20;6.35;;;3.78;;
28335;SDS011;15592;53.656;7.276;2022-11-20T06:22:46;6.07;;;3.78;;
28335;SDS011;15592;53.656;7.276;2022-11-20T06:25:12;5.78;;;3.80;;
28335;SDS011;15592;53.656;7.276;2022-11-20T06:27:38;5.75;;;4.07;;
28335;SDS011;15592;53.656;7.276;2022-11-20T06:30:04;6.28;;;3.80;;
28335;SDS011;15592;53.656;7.276;2022-11-20T06:32:30;9.35;;;4.22;;
28335;SDS011;15592;53.656;7.276;2022-11-20T06:34:55;8.50;;;5.70;;
28335;SDS011;15592;53.656;7.276;2022-11-20T06:37:21;10.77;;;5.43;;
28335;SDS011;15592;53.656;7.276;2022-11-20T06:39:46;7.50;;;4.95;;
28335;SDS011;15592;53.656;7.276;2022-11-20T06:42:12;8.10;;;5.38;;
28335;SDS011;15592;53.656;7.276;2022-11-20T06:44:38;8.75;;;6.00;;
28335;SDS011;15592;53.656;7.276;2022-11-20T06:47:03;10.57;;;6.43;;
28335;SDS011;15592;53.656;7.276;2022-11-20T06:49:29;8.05;;;5.38;;
28335;SDS011;15592;53.656;7.276;2022-11-20T06:51:55;9.23;;;6.13;;
28335;SDS011;15592;53.656;7.276;2022-11-20T06:54:20;8.02;;;5.47;;
28335;SDS011;15592;53.656;7.276;2022-11-20T06:56:49;8.23;;;5.30;;
28335;SDS011;15592;53.656;7.276;2022-11-20T06:59:15;9.80;;;5.85;;
28335;SDS011;15592;53.656;7.276;2022-11-20T07:01:40;9.75;;;5.70;;
28335;SDS011;15592;53.656;7.276;2022-11-20T07:04:06;10.07;;;5.53;;
28335;SDS011;15592;53.656;7.276;2022-11-20T07:06:31;7.55;;;4.85;;
28335;SDS011;15592;53.656;7.276;2022-11-20T07:08:57;8.00;;;5.10;;
28335;SDS011;15592;53.656;7.276;2022-11-20T07:11:23;7.32;;;5.20;;
28335;SDS011;15592;53.656;7.276;2022-11-20T07:13:49;7.35;;;4.93;;
28335;SDS011;15592;53.656;7.276;2022-11-20T07:16:15;7.43;;;4.97;;
28335;SDS011;15592;53.656;7.276;2022-11-20T07:18:41;8.13;;;5.43;;
28335;SDS011;15592;53.656;7.276;2022-11-20T07:21:08;8.68;;;6.03;;
28335;SDS011;15592;53.656;7.276;2022-11-20T07:23:35;7.30;;;4.82;;
28335;SDS011;15592;53.656;7.276;2022-11-20T07:26:04;10.15;;;5.97;;
28335;SDS011;15592;53.656;7.276;2022-11-20T07:28:34;11.55;;;7.18;;
28335;SDS011;15592;53.656;7.276;2022-11-20T07:31:00;13.13;;;7.50;;
28335;SDS011;15592;53.656;7.276;2022-11-20T07:33:26;11.85;;;7.60;;
28335;SDS011;15592;53.656;7.276;2022-11-20T07:35:52;12.25;;;7.30;;
28335;SDS011;15592;53.656;7.276;2022-11-20T07:38:17;13.20;;;7.90;;
28335;SDS011;15592;53.656;7.276;2022-11-20T07:40:43;12.82;;;7.93;;
28335;SDS011;15592;53.656;7.276;2022-11-20T07:43:09;13.32;;;8.07;;
28335;SDS011;15592;53.656;7.276;2022-11-20T07:45:34;12.10;;;8.38;;
28335;SDS011;15592;53.656;7.276;2022-11-20T07:48:00;13.80;;;8.38;;
28335;SDS011;15592;53.656;7.276;2022-11-20T07:50:26;13.27;;;8.25;;
28335;SDS011;15592;53.656;7.276;2022-11-20T07:52:51;13.85;;;7.93;;
28335;SDS011;15592;53.656;7.276;2022-11-20T07:55:17;14.25;;;8.60;;
28335;SDS011;15592;53.656;7.276;2022-11-20T07:57:43;13.95;;;8.60;;
28335;SDS011;15592;53.656;7.276;2022-11-20T08:00:09;11.27;;;7.50;;
28335;SDS011;15592;53.656;7.276;2022-11-20T08:02:37;12.32;;;7.47;;
28335;SDS011;15592;53.656;7.276;2022-11-20T08:05:04;13.43;;;8.02;;
28335;SDS011;15592;53.656;7.276;2022-11-20T08:07:34;12.50;;;7.53;;
28335;SDS011;15592;53.656;7.276;2022-11-20T08:10:01;14.48;;;9.05;;
28335;SDS011;15592;53.656;7.276;2022-11-20T08:12:27;16.73;;;9.18;;
28335;SDS011;15592;53.656;7.276;2022-11-20T08:15:11;15.10;;;8.77;;
28335;SDS011;15592;53.656;7.276;2022-11-20T08:17:37;13.38;;;8.32;;
28335;SDS011;15592;53.656;7.276;2022-11-20T08:20:03;13.23;;;7.82;;
28335;SDS011;15592;53.656;7.276;2022-11-20T08:22:29;13.23;;;8.32;;
28335;SDS011;15592;53.656;7.276;2022-11-20T08:24:54;11.15;;;7.63;;
28335;SDS011;15592;53.656;7.276;2022-11-20T08:27:20;13.77;;;8.50;;
28335;SDS011;15592;53.656;7.276;2022-11-20T08:29:46;13.80;;;8.13;;
28335;SDS011;15592;53.656;7.276;2022-11-20T08:32:11;11.02;;;7.05;;
28335;SDS011;15592;53.656;7.276;2022-11-20T08:34:37;11.20;;;7.35;;
28335;SDS011;15592;53.656;7.276;2022-11-20T08:37:02;11.38;;;7.40;;
28335;SDS011;15592;53.656;7.276;2022-11-20T08:39:28;11.75;;;7.35;;
28335;SDS011;15592;53.656;7.276;2022-11-20T08:41:54;11.18;;;6.78;;
28335;SDS011;15592;53.656;7.276;2022-11-20T08:44:19;10.95;;;6.65;;
28335;SDS011;15592;53.656;7.276;2022-11-20T08:46:45;11.38;;;7.07;;
28335;SDS011;15592;53.656;7.276;2022-11-20T08:49:12;12.73;;;7.45;;
28335;SDS011;15592;53.656;7.276;2022-11-20T08:51:39;10.73;;;7.05;;
28335;SDS011;15592;53.656;7.276;2022-11-20T08:54:05;12.60;;;7.32;;
28335;SDS011;15592;53.656;7.276;2022-11-20T08:56:31;12.02;;;7.47;;
28335;SDS011;15592;53.656;7.276;2022-11-20T08:58:57;11.60;;;7.25;;
28335;SDS011;15592;53.656;7.276;2022-11-20T09:01:26;11.43;;;7.63;;
28335;SDS011;15592;53.656;7.276;2022-11-20T09:03:56;11.77;;;7.30;;
28335;SDS011;15592;53.656;7.276;2022-11-20T09:06:22;14.68;;;8.60;;
28335;SDS011;15592;53.656;7.276;2022-11-20T09:08:51;14.45;;;8.98;;
28335;SDS011;15592;53.656;7.276;2022-11-20T09:13:43;14.73;;;8.77;;
28335;SDS011;15592;53.656;7.276;2022-11-20T09:16:09;14.45;;;8.60;;
28335;SDS011;15592;53.656;7.276;2022-11-20T09:18:35;15.23;;;9.20;;
28335;SDS011;15592;53.656;7.276;2022-11-20T09:21:03;15.85;;;9.38;;
28335;SDS011;15592;53.656;7.276;2022-11-20T09:23:31;17.75;;;10.38;;
28335;SDS011;15592;53.656;7.276;2022-11-20T09:26:01;16.88;;;10.07;;
28335;SDS011;15592;53.656;7.276;2022-11-20T09:28:29;22.42;;;12.32;;
28335;SDS011;15592;53.656;7.276;2022-11-20T09:30:55;15.13;;;10.38;;
28335;SDS011;15592;53.656;7.276;2022-11-20T09:33:20;16.65;;;10.57;;
28335;SDS011;15592;53.656;7.276;2022-11-20T09:35:46;17.15;;;10.30;;
28335;SDS011;15592;53.656;7.276;2022-11-20T09:38:11;16.63;;;10.70;;
28335;SDS011;15592;53.656;7.276;2022-11-20T09:40:40;15.10;;;10.20;;
28335;SDS011;15592;53.656;7.276;2022-11-20T09:46:06;16.00;;;9.90;;
28335;SDS011;15592;53.656;7.276;2022-11-20T09:48:41;16.88;;;11.10;;
28335;SDS011;15592;53.656;7.276;2022-11-20T09:51:35;18.33;;;10.25;;
28335;SDS011;15592;53.656;7.276;2022-11-20T09:54:20;17.73;;;11.18;;
28335;SDS011;15592;53.656;7.276;2022-11-20T10:01:55;16.88;;;10.98;;
28335;SDS011;15592;53.656;7.276;2022-11-20T10:04:23;17.83;;;11.65;;
28335;SDS011;15592;53.656;7.276;2022-11-20T10:07:07;17.27;;;10.73;;
28335;SDS011;15592;53.656;7.276;2022-11-20T10:09:57;18.27;;;11.73;;
28335;SDS011;15592;53.656;7.276;2022-11-20T10:28:39;17.30;;;10.23;;
28335;SDS011;15592;53.656;7.276;2022-11-20T10:31:17;17.30;;;11.00;;
28335;SDS011;15592;53.656;7.276;2022-11-20T10:34:17;18.38;;;11.30;;
28335;SDS011;15592;53.656;7.276;2022-11-20T10:36:55;15.73;;;10.50;;
28335;SDS011;15592;53.656;7.276;2022-11-20T10:39:30;16.30;;;10.65;;
28335;SDS011;15592;53.656;7.276;2022-11-20T10:42:08;16.77;;;10.65;;
28335;SDS011;15592;53.656;7.276;2022-11-20T10:44:39;17.25;;;10.23;;
28335;SDS011;15592;53.656;7.276;2022-11-20T10:47:27;15.65;;;10.18;;
28335;SDS011;15592;53.656;7.276;2022-11-20T10:49:56;14.90;;;10.25;;
28335;SDS011;15592;53.656;7.276;2022-11-20T10:52:33;15.57;;;9.90;;
28335;SDS011;15592;53.656;7.276;2022-11-20T11:00:33;14.15;;;9.63;;
28335;SDS011;15592;53.656;7.276;2022-11-20T11:02:59;14.68;;;9.52;;
28335;SDS011;15592;53.656;7.276;2022-11-20T11:08:35;14.63;;;8.38;;
28335;SDS011;15592;53.656;7.276;2022-11-20T11:22:27;9.20;;;6.05;;
28335;SDS011;15592;53.656;7.276;2022-11-20T11:25:29;11.57;;;7.25;;
28335;SDS011;15592;53.656;7.276;2022-11-20T11:30:43;9.27;;;5.70;;
28335;SDS011;15592;53.656;7.276;2022-11-20T11:33:11;10.18;;;6.10;;
28335;SDS011;15592;53.656;7.276;2022-11-20T11:35:48;9.63;;;5.53;;
28335;SDS011;15592;53.656;7.276;2022-11-20T11:38:19;7.30;;;5.18;;
28335;SDS011;15592;53.656;7.276;2022-11-20T11:40:48;9.27;;;5.13;;
28335;SDS011;15592;53.656;7.276;2022-11-20T11:43:22;7.97;;;5.22;;
28335;SDS011;15592;53.656;7.276;2022-11-20T11:46:23;7.90;;;4.18;;
28335;SDS011;15592;53.656;7.276;2022-11-20T11:51:39;4.30;;;3.03;;
28335;SDS011;15592;53.656;7.276;2022-11-20T11:54:17;3.72;;;2.80;;
28335;SDS011;15592;53.656;7.276;2022-11-20T11:56:48;3.95;;;2.42;;
28335;SDS011;15592;53.656;7.276;2022-11-20T11:59:22;3.20;;;2.38;;
28335;SDS011;15592;53.656;7.276;2022-11-20T12:02:00;2.45;;;2.00;;
28335;SDS011;15592;53.656;7.276;2022-11-20T12:09:48;3.20;;;2.35;;
28335;SDS011;15592;53.656;7.276;2022-11-20T12:14:46;7.65;;;3.80;;
28335;SDS011;15592;53.656;7.276;2022-11-20T12:17:15;6.97;;;4.13;;
28335;SDS011;15592;53.656;7.276;2022-11-20T12:19:40;6.38;;;4.18;;
28335;SDS011;15592;53.656;7.276;2022-11-20T12:25:17;6.10;;;3.60;;
28335;SDS011;15592;53.656;7.276;2022-11-20T12:30:27;5.15;;;3.45;;
28335;SDS011;15592;53.656;7.276;2022-11-20T12:39:43;6.00;;;3.72;;
28335;SDS011;15592;53.656;7.276;2022-11-20T12:53:26;2.83;;;2.00;;
28335;SDS011;15592;53.656;7.276;2022-11-20T13:08:04;5.50;;;3.20;;
28335;SDS011;15592;53.656;7.276;2022-11-20T13:10:43;6.00;;;3.65;;
28335;SDS011;15592;53.656;7.276;2022-11-20T13:13:31;5.28;;;3.80;;
28335;SDS011;15592;53.656;7.276;2022-11-20T13:16:12;6.47;;;3.47;;
28335;SDS011;15592;53.656;7.276;2022-11-20T13:18:49;6.63;;;3.95;;
28335;SDS011;15592;53.656;7.276;2022-11-20T13:21:22;5.53;;;3.83;;
28335;SDS011;15592;53.656;7.276;2022-11-20T13:24:05;5.00;;;3.53;;
28335;SDS011;15592;53.656;7.276;2022-11-20T13:27:01;4.72;;;3.45;;
28335;SDS011;15592;53.656;7.276;2022-11-20T13:29:33;5.95;;;4.07;;
28335;SDS011;15592;53.656;7.276;2022-11-20T13:32:11;8.35;;;4.35;;
28335;SDS011;15592;53.656;7.276;2022-11-20T13:34:38;5.85;;;4.50;;
28335;SDS011;15592;53.656;7.276;2022-11-20T13:37:04;7.57;;;5.25;;
28335;SDS011;15592;53.656;7.276;2022-11-20T13:39:36;8.35;;;5.25;;
28335;SDS011;15592;53.656;7.276;2022-11-20T13:44:42;7.95;;;5.50;;
28335;SDS011;15592;53.656;7.276;2022-11-20T13:47:20;10.45;;;6.13;;
28335;SDS011;15592;53.656;7.276;2022-11-20T13:49:51;7.93;;;5.50;;
28335;SDS011;15592;53.656;7.276;2022-11-20T14:00:23;7.97;;;5.75;;
28335;SDS011;15592;53.656;7.276;2022-11-20T14:05:31;9.88;;;6.88;;
28335;SDS011;15592;53.656;7.276;2022-11-20T14:08:00;9.55;;;6.28;;
28335;SDS011;15592;53.656;7.276;2022-11-20T14:10:30;9.20;;;6.53;;
28335;SDS011;15592;53.656;7.276;2022-11-20T14:13:09;9.75;;;6.53;;
28335;SDS011;15592;53.656;7.276;2022-11-20T14:15:45;11.55;;;7.40;;
28335;SDS011;15592;53.656;7.276;2022-11-20T14:18:12;11.00;;;7.10;;
28335;SDS011;15592;53.656;7.276;2022-11-20T14:20:40;9.77;;;7.00;;
28335;SDS011;15592;53.656;7.276;2022-11-20T14:23:10;10.85;;;7.35;;
28335;SDS011;15592;53.656;7.276;2022-11-20T14:25:41;10.10;;;7.00;;
28335;SDS011;15592;53.656;7.276;2022-11-20T14:28:11;11.07;;;7.53;;
28335;SDS011;15592;53.656;7.276;2022-11-20T14:30:47;13.77;;;8.73;;
28335;SDS011;15592;53.656;7.276;2022-11-20T14:33:16;11.90;;;7.80;;
28335;SDS011;15592;53.656;7.276;2022-11-20T14:35:45;12.05;;;7.70;;
28335;SDS011;15592;53.656;7.276;2022-11-20T14:38:17;10.50;;;7.32;;
28335;SDS011;15592;53.656;7.276;2022-11-20T14:40:44;11.88;;;7.65;;
28335;SDS011;15592;53.656;7.276;2022-11-20T14:45:55;14.85;;;7.47;;
28335;SDS011;15592;53.656;7.276;2022-11-20T14:51:36;13.18;;;8.65;;
28335;SDS011;15592;53.656;7.276;2022-11-20T14:54:16;14.63;;;10.40;;
28335;SDS011;15592;53.656;7.276;2022-11-20T15:06:51;25.20;;;15.70;;
28335;SDS011;15592;53.656;7.276;2022-11-20T15:09:21;22.05;;;14.85;;
28335;SDS011;15592;53.656;7.276;2022-11-20T15:11:57;23.17;;;14.82;;
28335;SDS011;15592;53.656;7.276;2022-11-20T15:14:33;22.17;;;14.00;;
28335;SDS011;15592;53.656;7.276;2022-11-20T15:17:01;21.48;;;14.23;;
28335;SDS011;15592;53.656;7.276;2022-11-20T15:22:33;18.77;;;12.52;;
28335;SDS011;15592;53.656;7.276;2022-11-20T15:24:59;20.60;;;11.95;;
28335;SDS011;15592;53.656;7.276;2022-11-20T15:27:24;20.15;;;12.60;;
28335;SDS011;15592;53.656;7.276;2022-11-20T15:29:50;20.13;;;13.70;;
28335;SDS011;15592;53.656;7.276;2022-11-20T15:32:15;20.10;;;12.60;;
28335;SDS011;15592;53.656;7.276;2022-11-20T15:34:41;19.17;;;12.85;;
28335;SDS011;15592;53.656;7.276;2022-11-20T15:37:07;21.92;;;12.82;;
28335;SDS011;15592;53.656;7.276;2022-11-20T15:39:38;19.17;;;12.18;;
28335;SDS011;15592;53.656;7.276;2022-11-20T15:42:04;20.02;;;12.85;;
28335;SDS011;15592;53.656;7.276;2022-11-20T15:44:29;19.95;;;13.10;;
28335;SDS011;15592;53.656;7.276;2022-11-20T15:46:55;18.75;;;11.95;;
28335;SDS011;15592;53.656;7.276;2022-11-20T15:49:21;21.10;;;13.23;;
28335;SDS011;15592;53.656;7.276;2022-11-20T15:51:48;19.80;;;13.05;;
28335;SDS011;15592;53.656;7.276;2022-11-20T15:54:16;19.27;;;12.25;;
28335;SDS011;15592;53.656;7.276;2022-11-20T15:56:44;20.05;;;12.27;;
28335;SDS011;15592;53.656;7.276;2022-11-20T15:59:13;21.13;;;13.73;;
28335;SDS011;15592;53.656;7.276;2022-11-20T16:04:43;21.20;;;12.73;;
28335;SDS011;15592;53.656;7.276;2022-11-20T16:07:08;17.40;;;11.70;;
28335;SDS011;15592;53.656;7.276;2022-11-20T16:09:34;20.67;;;12.27;;
28335;SDS011;15592;53.656;7.276;2022-11-20T16:12:00;19.88;;;12.68;;
28335;SDS011;15592;53.656;7.276;2022-11-20T16:14:26;17.95;;;11.48;;
28335;SDS011;15592;53.656;7.276;2022-11-20T16:17:10;18.00;;;11.40;;
28335;SDS011;15592;53.656;7.276;2022-11-20T16:19:45;19.17;;;12.00;;
28335;SDS011;15592;53.656;7.276;2022-11-20T16:22:39;18.27;;;11.32;;
28335;SDS011;15592;53.656;7.276;2022-11-20T16:25:07;18.35;;;11.15;;
28335;SDS011;15592;53.656;7.276;2022-11-20T16:31:12;15.98;;;10.27;;
28335;SDS011;15592;53.656;7.276;2022-11-20T16:36:31;15.13;;;9.82;;
28335;SDS011;15592;53.656;7.276;2022-11-20T16:39:07;15.23;;;9.68;;
28335;SDS011;15592;53.656;7.276;2022-11-20T16:41:33;17.52;;;10.75;;
28335;SDS011;15592;53.656;7.276;2022-11-20T16:44:00;17.02;;;9.90;;
28335;SDS011;15592;53.656;7.276;2022-11-20T16:46:31;17.20;;;10.88;;
28335;SDS011;15592;53.656;7.276;2022-11-20T16:54:30;19.77;;;13.00;;
28335;SDS011;15592;53.656;7.276;2022-11-20T16:56:56;20.35;;;13.07;;
28335;SDS011;15592;53.656;7.276;2022-11-20T16:59:45;19.83;;;12.95;;
28335;SDS011;15592;53.656;7.276;2022-11-20T17:02:14;20.85;;;13.07;;
28335;SDS011;15592;53.656;7.276;2022-11-20T17:04:40;21.15;;;13.60;;
28335;SDS011;15592;53.656;7.276;2022-11-20T17:07:06;21.75;;;13.63;;
28335;SDS011;15592;53.656;7.276;2022-11-20T17:09:32;22.50;;;14.25;;
28335;SDS011;15592;53.656;7.276;2022-11-20T17:11:58;21.02;;;13.45;;
28335;SDS011;15592;53.656;7.276;2022-11-20T17:14:23;22.77;;;13.60;;
28335;SDS011;15592;53.656;7.276;2022-11-20T17:20:15;23.05;;;14.27;;
28335;SDS011;15592;53.656;7.276;2022-11-20T17:22:41;24.00;;;14.90;;
28335;SDS011;15592;53.656;7.276;2022-11-20T17:25:06;21.33;;;13.60;;
28335;SDS011;15592;53.656;7.276;2022-11-20T17:27:32;20.45;;;13.48;;